KAPG/APG METAR and TAF weather

Enter ICAO airport designator
Station Type Date Time Source
KAPG METAR 2020/04/08 20:58 UTC NOAA

KAPG 082058Z AUTO 28009G15KT 8SM FEW120 24/08 A2955 RMK AO2 SLP009 T02360079 PNO TSNO $


Station Type Date Time Source
KAPG Decoded METAR 2020/04/08 20:58 UTC NOAA

Phillips Army Air Field / Aberdeen, MD, United States (KAPG) 39-28N 076-10W
Apr 08, 2020 - 04:58 PM EDT / 2020.04.08 2058 UTC
Wind: from the W (280 degrees) at 10 MPH (9 KT) gusting to 17 MPH (15 KT):0
Visibility: 8 mile(s):0
Sky conditions: mostly clear
Temperature: 74.5 F (23.6 C)
Dew Point: 46.2 F (7.9 C)
Relative Humidity: 36%
Pressure (altimeter): 29.55 in. Hg (1000 hPa)
ob: KAPG 082058Z AUTO 28009G15KT 8SM FEW120 24/08 A2955 RMK AO2 SLP009 T02360079 PNO TSNO
cycle: 21

Station Type Date Time Source
KAPG TAF UTC NOAA

Error!

Example: see airport list